Time;durP1;ratioP1;P1;durP2;ratioP2;P2;SDS_P1;SDS_P2;PMS_P1;PMS_P2;Temp;Humidity;BMP_temperature;BMP_pressure;BME280_temperature;BME280_humidity;BME280_pressure;Samples;Min_cycle;Max_cycle;Signal;HPM_P1;HPM_P2
2023/07/22 00:02:25;;;;;;;27.38;6.80;;;;;;;;;;4857611;29;20110;-77
2023/07/22 00:04:55;;;;;;;20.08;6.30;;;;;;;;;;4849036;29;20057;-78
2023/07/22 00:07:21;;;;;;;18.70;5.80;;;;;;;;;;4856676;29;20066;-78
2023/07/22 00:09:49;;;;;;;19.10;5.50;;;;;;;;;;4849392;29;20467;-76
2023/07/22 00:12:15;;;;;;;18.48;6.18;;;;;;;;;;4849567;29;20109;-77
2023/07/22 00:14:43;;;;;;;21.67;6.50;;;;;;;;;;4853066;29;20509;-77
2023/07/22 00:17:09;;;;;;;22.05;5.97;;;;;;;;;;4848639;29;20182;-77
2023/07/22 00:19:35;;;;;;;20.80;5.70;;;;;;;;;;4835770;29;20181;-76
2023/07/22 00:22:01;;;;;;;22.67;5.65;;;;;;;;;;4849512;29;20064;-76
2023/07/22 00:24:27;;;;;;;24.00;6.35;;;;;;;;;;4846863;29;20054;-76
2023/07/22 00:26:54;;;;;;;26.35;6.25;;;;;;;;;;4847533;29;20194;-76
2023/07/22 00:29:20;;;;;;;18.90;5.47;;;;;;;;;;4848717;29;20046;-76
2023/07/22 00:31:47;;;;;;;24.05;6.72;;;;;;;;;;4848763;29;20085;-76
2023/07/22 00:34:13;;;;;;;23.42;5.82;;;;;;;;;;4845790;29;20502;-77
2023/07/22 00:36:40;;;;;;;20.10;6.45;;;;;;;;;;4852108;29;20061;-77
2023/07/22 00:39:06;;;;;;;21.80;6.30;;;;;;;;;;4840790;29;21481;-75
2023/07/22 00:41:32;;;;;;;19.27;5.82;;;;;;;;;;4847357;29;20062;-75
2023/07/22 00:43:58;;;;;;;20.08;5.82;;;;;;;;;;4850313;29;20521;-77
2023/07/22 00:46:24;;;;;;;21.48;6.13;;;;;;;;;;4826656;29;20053;-76
2023/07/22 00:48:50;;;;;;;17.92;6.43;;;;;;;;;;4843084;29;20061;-75
2023/07/22 00:51:19;;;;;;;17.08;5.78;;;;;;;;;;4848795;29;20053;-76
2023/07/22 00:53:45;;;;;;;20.45;5.72;;;;;;;;;;4850453;29;20050;-75
2023/07/22 00:56:13;;;;;;;21.92;5.55;;;;;;;;;;4845125;29;20041;-75
2023/07/22 00:58:39;;;;;;;21.10;5.70;;;;;;;;;;4843492;29;20057;-78
2023/07/22 01:01:05;;;;;;;22.08;6.18;;;;;;;;;;4848367;29;20510;-75
2023/07/22 01:03:31;;;;;;;17.77;5.88;;;;;;;;;;4849842;29;20049;-75
2023/07/22 01:06:00;;;;;;;17.48;5.70;;;;;;;;;;4835870;29;20522;-76
2023/07/22 01:08:26;;;;;;;24.40;6.03;;;;;;;;;;4856414;29;20062;-76
2023/07/22 01:10:52;;;;;;;19.70;5.40;;;;;;;;;;4851220;29;20041;-76
2023/07/22 01:13:19;;;;;;;22.38;5.90;;;;;;;;;;4855482;29;20169;-77
2023/07/22 01:15:47;;;;;;;21.98;6.22;;;;;;;;;;4846483;29;20062;-76
2023/07/22 01:18:13;;;;;;;19.38;6.22;;;;;;;;;;4848439;29;20201;-75
2023/07/22 01:20:39;;;;;;;14.32;5.63;;;;;;;;;;4845890;29;20066;-75
2023/07/22 01:23:06;;;;;;;19.58;6.00;;;;;;;;;;4843940;29;20050;-76
2023/07/22 01:25:32;;;;;;;21.50;6.15;;;;;;;;;;4838819;29;20686;-75
2023/07/22 01:27:58;;;;;;;18.63;5.47;;;;;;;;;;4843956;29;20142;-75
2023/07/22 01:30:27;;;;;;;18.58;6.15;;;;;;;;;;4839481;29;20094;-77
2023/07/22 01:32:53;;;;;;;24.42;6.40;;;;;;;;;;4850886;29;20046;-75
2023/07/22 01:35:20;;;;;;;20.27;6.55;;;;;;;;;;4842809;29;20550;-75
2023/07/22 01:37:46;;;;;;;20.13;6.20;;;;;;;;;;4826478;29;20456;-75
2023/07/22 01:40:12;;;;;;;18.63;6.60;;;;;;;;;;4836367;29;20433;-75
2023/07/22 01:42:39;;;;;;;19.52;6.43;;;;;;;;;;4837757;29;20060;-75
2023/07/22 01:45:07;;;;;;;20.42;6.85;;;;;;;;;;4843306;29;20132;-75
2023/07/22 01:47:35;;;;;;;25.02;6.43;;;;;;;;;;4849808;29;20541;-75
2023/07/22 01:50:08;;;;;;;20.23;6.22;;;;;;;;;;4856571;29;20061;-76
2023/07/22 01:52:35;;;;;;;12.23;4.95;;;;;;;;;;4838242;29;20058;-74
2023/07/22 01:55:05;;;;;;;20.20;5.38;;;;;;;;;;4852336;29;20053;-75
2023/07/22 01:57:34;;;;;;;19.40;5.75;;;;;;;;;;4854253;29;20501;-75
2023/07/22 02:00:00;;;;;;;19.30;5.53;;;;;;;;;;4848979;29;20062;-75
2023/07/22 02:02:26;;;;;;;21.40;4.85;;;;;;;;;;4842851;29;20148;-76
2023/07/22 02:04:52;;;;;;;17.38;5.47;;;;;;;;;;4829826;29;20056;-75
2023/07/22 02:07:18;;;;;;;21.67;5.68;;;;;;;;;;4848750;29;20058;-75
2023/07/22 02:09:51;;;;;;;19.02;5.20;;;;;;;;;;4856824;29;20053;-75
2023/07/22 02:12:18;;;;;;;16.05;5.88;;;;;;;;;;4831382;29;20057;-76
2023/07/22 02:14:44;;;;;;;17.25;5.50;;;;;;;;;;4852777;29;20076;-75
2023/07/22 02:17:10;;;;;;;17.80;5.47;;;;;;;;;;4831772;29;20101;-75
2023/07/22 02:19:36;;;;;;;24.40;5.88;;;;;;;;;;4853991;29;22180;-73
2023/07/22 02:22:04;;;;;;;18.25;5.30;;;;;;;;;;4849524;29;20062;-74
2023/07/22 02:24:30;;;;;;;17.90;5.80;;;;;;;;;;4834397;29;20124;-75
2023/07/22 02:26:56;;;;;;;18.50;5.97;;;;;;;;;;4844512;29;21674;-74
2023/07/22 02:29:22;;;;;;;19.50;5.57;;;;;;;;;;4853472;29;20086;-74
2023/07/22 02:31:48;;;;;;;16.02;5.18;;;;;;;;;;4850132;29;20053;-74
2023/07/22 02:34:14;;;;;;;18.40;5.53;;;;;;;;;;4836356;29;20049;-75
2023/07/22 02:36:41;;;;;;;29.65;5.70;;;;;;;;;;4848606;29;20049;-76
2023/07/22 02:39:09;;;;;;;17.00;5.30;;;;;;;;;;4850821;29;20048;-74
2023/07/22 02:41:38;;;;;;;24.27;6.38;;;;;;;;;;4853670;29;20061;-77
2023/07/22 02:44:04;;;;;;;22.67;5.82;;;;;;;;;;4842416;29;20054;-75
2023/07/22 02:46:31;;;;;;;16.60;5.00;;;;;;;;;;4850281;29;20057;-76
2023/07/22 02:48:58;;;;;;;21.67;5.03;;;;;;;;;;4835777;29;20045;-76
2023/07/22 02:51:25;;;;;;;22.80;5.72;;;;;;;;;;4858280;29;20061;-72
2023/07/22 02:53:51;;;;;;;20.65;5.93;;;;;;;;;;4852990;29;20124;-75
2023/07/22 02:56:17;;;;;;;24.88;5.38;;;;;;;;;;4853495;29;20049;-77
2023/07/22 02:58:43;;;;;;;23.30;6.32;;;;;;;;;;4855597;29;20536;-76
2023/07/22 03:01:10;;;;;;;12.85;4.97;;;;;;;;;;4849059;29;20080;-75
2023/07/22 03:03:36;;;;;;;18.88;5.18;;;;;;;;;;4841028;29;20488;-72
2023/07/22 03:06:07;;;;;;;14.77;5.45;;;;;;;;;;4850051;29;20129;-74
2023/07/22 03:08:32;;;;;;;17.65;5.78;;;;;;;;;;4852094;29;20086;-76
2023/07/22 03:10:58;;;;;;;15.93;5.15;;;;;;;;;;4849037;29;20057;-74
2023/07/22 03:13:24;;;;;;;24.90;5.72;;;;;;;;;;4856502;29;20053;-77
2023/07/22 03:15:53;;;;;;;15.98;5.32;;;;;;;;;;4848115;29;20109;-75
2023/07/22 03:18:19;;;;;;;18.92;5.63;;;;;;;;;;4854734;29;20045;-76
2023/07/22 03:20:45;;;;;;;19.48;5.10;;;;;;;;;;4860700;29;20064;-76
2023/07/22 03:23:11;;;;;;;20.15;5.65;;;;;;;;;;4853290;29;20054;-75
2023/07/22 03:25:37;;;;;;;15.07;5.32;;;;;;;;;;4851573;29;20054;-74
2023/07/22 03:28:06;;;;;;;17.08;5.95;;;;;;;;;;4842970;29;20057;-75
2023/07/22 03:30:33;;;;;;;15.80;6.10;;;;;;;;;;4837064;29;20086;-75
2023/07/22 03:33:00;;;;;;;15.00;5.15;;;;;;;;;;4851452;29;20038;-74
2023/07/22 03:35:27;;;;;;;15.13;4.97;;;;;;;;;;4849818;29;20129;-76
2023/07/22 03:37:53;;;;;;;16.70;5.68;;;;;;;;;;4857939;29;20120;-75
2023/07/22 03:40:19;;;;;;;21.45;5.57;;;;;;;;;;4846183;29;20207;-74
2023/07/22 03:42:52;;;;;;;17.52;5.80;;;;;;;;;;4846668;29;20135;-75
2023/07/22 03:45:20;;;;;;;20.83;6.43;;;;;;;;;;4829026;29;20061;-74
2023/07/22 03:47:47;;;;;;;14.27;5.20;;;;;;;;;;4848623;29;20529;-76
2023/07/22 03:50:13;;;;;;;17.35;5.80;;;;;;;;;;4851571;29;20064;-75
2023/07/22 03:52:39;;;;;;;20.50;5.30;;;;;;;;;;4860022;29;20065;-74
2023/07/22 03:55:08;;;;;;;16.30;6.30;;;;;;;;;;4861808;29;20083;-75
2023/07/22 03:57:36;;;;;;;14.25;5.22;;;;;;;;;;4861609;29;20061;-74
2023/07/22 04:00:06;;;;;;;21.10;5.97;;;;;;;;;;4854825;29;20058;-75
2023/07/22 04:02:34;;;;;;;19.30;5.75;;;;;;;;;;4834160;29;20072;-74
2023/07/22 04:05:00;;;;;;;18.02;5.90;;;;;;;;;;4852218;29;20061;-74
2023/07/22 04:07:26;;;;;;;19.23;5.45;;;;;;;;;;4851271;29;20483;-75
2023/07/22 04:09:52;;;;;;;17.15;5.47;;;;;;;;;;4844376;29;20060;-73
2023/07/22 04:12:18;;;;;;;19.40;5.47;;;;;;;;;;4847714;29;20064;-76
2023/07/22 04:14:44;;;;;;;11.40;5.50;;;;;;;;;;4850957;29;20503;-75
2023/07/22 04:17:16;;;;;;;16.95;5.68;;;;;;;;;;4847961;29;20060;-75
2023/07/22 04:19:45;;;;;;;13.88;5.28;;;;;;;;;;4859237;29;20450;-73
2023/07/22 04:22:11;;;;;;;21.70;6.20;;;;;;;;;;4850985;29;20054;-72
2023/07/22 04:24:37;;;;;;;18.23;5.90;;;;;;;;;;4856413;29;20060;-75
2023/07/22 04:27:03;;;;;;;29.33;6.07;;;;;;;;;;4859486;29;20053;-74
2023/07/22 04:29:31;;;;;;;20.50;6.60;;;;;;;;;;4855891;29;20057;-75
2023/07/22 04:32:01;;;;;;;18.30;5.85;;;;;;;;;;4849630;29;20115;-74
2023/07/22 04:34:31;;;;;;;19.77;5.40;;;;;;;;;;4848830;29;20506;-74
2023/07/22 04:36:58;;;;;;;22.35;5.85;;;;;;;;;;4848104;29;20570;-74
2023/07/22 04:39:24;;;;;;;17.70;5.63;;;;;;;;;;4844529;29;20064;-75
2023/07/22 04:41:51;;;;;;;19.30;5.78;;;;;;;;;;4845720;29;20065;-74
2023/07/22 04:44:18;;;;;;;23.17;5.43;;;;;;;;;;4835573;29;20423;-76
2023/07/22 04:46:44;;;;;;;17.77;5.45;;;;;;;;;;4848752;29;20094;-73
2023/07/22 04:49:12;;;;;;;18.10;5.82;;;;;;;;;;4851129;29;20155;-75
2023/07/22 04:51:37;;;;;;;16.25;5.57;;;;;;;;;;4851866;29;20064;-74
2023/07/22 04:54:05;;;;;;;15.82;5.43;;;;;;;;;;4849313;29;20053;-76
2023/07/22 04:56:31;;;;;;;16.80;5.50;;;;;;;;;;4843715;29;20557;-74
2023/07/22 04:58:57;;;;;;;17.60;5.72;;;;;;;;;;4848567;29;20810;-75
2023/07/22 05:01:22;;;;;;;20.95;5.82;;;;;;;;;;4846310;29;20053;-76
2023/07/22 05:03:51;;;;;;;21.40;5.18;;;;;;;;;;4844575;29;20050;-72
2023/07/22 05:06:17;;;;;;;19.45;5.70;;;;;;;;;;4827826;29;20890;-74
2023/07/22 05:08:43;;;;;;;19.05;5.50;;;;;;;;;;4843391;29;20057;-74
2023/07/22 05:11:09;;;;;;;18.73;5.88;;;;;;;;;;4851601;29;20412;-75
2023/07/22 05:13:35;;;;;;;19.83;5.70;;;;;;;;;;4857338;29;20053;-74
2023/07/22 05:16:01;;;;;;;14.05;4.93;;;;;;;;;;4853018;29;20061;-74
2023/07/22 05:18:27;;;;;;;15.48;5.15;;;;;;;;;;4859878;29;20086;-75
2023/07/22 05:20:54;;;;;;;13.55;5.97;;;;;;;;;;4852333;29;20045;-76
2023/07/22 05:23:20;;;;;;;19.48;5.63;;;;;;;;;;4851680;29;20060;-75
2023/07/22 05:25:53;;;;;;;23.15;6.35;;;;;;;;;;4847389;29;20045;-74
2023/07/22 05:28:19;;;;;;;17.77;5.82;;;;;;;;;;4853361;29;20062;-75
2023/07/22 05:30:45;;;;;;;16.05;5.68;;;;;;;;;;4848571;29;20276;-74
2023/07/22 05:33:11;;;;;;;14.80;5.75;;;;;;;;;;4853045;29;20045;-74
2023/07/22 05:35:37;;;;;;;15.32;5.35;;;;;;;;;;4851492;29;20544;-75
2023/07/22 05:38:04;;;;;;;14.73;5.05;;;;;;;;;;4843349;29;20426;-75
2023/07/22 05:40:30;;;;;;;23.48;5.55;;;;;;;;;;4849795;29;20057;-74
2023/07/22 05:42:57;;;;;;;13.90;5.13;;;;;;;;;;4845951;29;20042;-75
2023/07/22 05:45:22;;;;;;;17.17;5.30;;;;;;;;;;4836201;29;20050;-75
2023/07/22 05:47:49;;;;;;;18.27;5.20;;;;;;;;;;4858784;29;20058;-74
2023/07/22 05:50:14;;;;;;;18.17;5.43;;;;;;;;;;4848164;29;20048;-74
2023/07/22 05:52:41;;;;;;;20.45;5.90;;;;;;;;;;4859380;29;20091;-76
2023/07/22 05:55:07;;;;;;;23.60;5.97;;;;;;;;;;4849857;29;20534;-75
2023/07/22 05:57:34;;;;;;;18.63;5.05;;;;;;;;;;4833191;29;20066;-74
2023/07/22 06:00:01;;;;;;;20.38;5.15;;;;;;;;;;4852787;29;20081;-75
2023/07/22 06:02:29;;;;;;;15.15;4.80;;;;;;;;;;4850654;29;20101;-76
2023/07/22 06:04:54;;;;;;;17.23;5.20;;;;;;;;;;4846233;29;20690;-75
2023/07/22 06:07:20;;;;;;;14.43;4.88;;;;;;;;;;4850915;29;20056;-75
2023/07/22 06:09:46;;;;;;;19.98;5.07;;;;;;;;;;4854354;29;20148;-74
2023/07/22 06:12:14;;;;;;;13.65;4.65;;;;;;;;;;4859358;29;20072;-75
2023/07/22 06:14:40;;;;;;;12.00;4.60;;;;;;;;;;4848871;29;20141;-76
2023/07/22 06:17:08;;;;;;;15.05;4.85;;;;;;;;;;4853772;29;20193;-75
2023/07/22 06:19:34;;;;;;;11.02;4.70;;;;;;;;;;4855796;29;20061;-75
2023/07/22 06:22:00;;;;;;;11.57;4.55;;;;;;;;;;4845139;29;20529;-74
2023/07/22 06:24:29;;;;;;;15.32;4.82;;;;;;;;;;4849725;29;20058;-74
2023/07/22 06:26:55;;;;;;;12.95;4.65;;;;;;;;;;4849624;29;20110;-75
2023/07/22 06:29:21;;;;;;;12.30;4.18;;;;;;;;;;4848660;29;20057;-74
2023/07/22 06:31:48;;;;;;;12.88;4.68;;;;;;;;;;4846336;29;20136;-74
2023/07/22 06:34:13;;;;;;;11.73;4.45;;;;;;;;;;4846172;29;20140;-76
2023/07/22 06:36:39;;;;;;;9.98;4.13;;;;;;;;;;4853382;29;20069;-76
2023/07/22 06:39:05;;;;;;;17.88;4.45;;;;;;;;;;4850474;29;20141;-77
2023/07/22 06:41:32;;;;;;;16.38;4.57;;;;;;;;;;4845438;29;20057;-75
2023/07/22 06:43:58;;;;;;;9.63;4.03;;;;;;;;;;4850295;29;20506;-78
2023/07/22 06:46:24;;;;;;;10.20;4.13;;;;;;;;;;4843350;29;20061;-76
2023/07/22 06:48:49;;;;;;;17.48;4.25;;;;;;;;;;4840304;29;20073;-76
2023/07/22 06:51:16;;;;;;;11.20;4.38;;;;;;;;;;4840616;29;20057;-76
2023/07/22 06:53:41;;;;;;;12.32;4.55;;;;;;;;;;4848290;29;20054;-78
2023/07/22 06:56:07;;;;;;;21.35;4.75;;;;;;;;;;4848122;29;20068;-79
2023/07/22 06:58:34;;;;;;;14.77;4.63;;;;;;;;;;4845103;29;20072;-77
2023/07/22 07:01:01;;;;;;;14.20;4.60;;;;;;;;;;4846101;29;20129;-77
2023/07/22 07:03:27;;;;;;;15.98;4.22;;;;;;;;;;4827467;29;20499;-77
2023/07/22 07:05:55;;;;;;;10.70;3.97;;;;;;;;;;4846767;29;20065;-75
2023/07/22 07:08:21;;;;;;;13.57;4.53;;;;;;;;;;4827429;29;20868;-75
2023/07/22 07:10:47;;;;;;;12.57;4.60;;;;;;;;;;4827150;29;20058;-74
2023/07/22 07:13:13;;;;;;;17.50;4.80;;;;;;;;;;4846625;29;20105;-74
2023/07/22 07:15:42;;;;;;;13.32;4.07;;;;;;;;;;4844396;29;20077;-78
2023/07/22 07:18:08;;;;;;;12.68;4.13;;;;;;;;;;4852092;29;20053;-74
2023/07/22 07:20:35;;;;;;;17.48;4.95;;;;;;;;;;4835140;29;20069;-74
2023/07/22 07:23:02;;;;;;;10.82;4.32;;;;;;;;;;4847761;29;20037;-78
2023/07/22 07:25:28;;;;;;;13.73;4.60;;;;;;;;;;4853513;29;20062;-73
2023/07/22 07:27:54;;;;;;;18.85;4.20;;;;;;;;;;4853537;29;20108;-77
2023/07/22 07:30:21;;;;;;;13.73;4.38;;;;;;;;;;4856544;29;20058;-76
2023/07/22 07:32:46;;;;;;;14.73;4.25;;;;;;;;;;4838219;29;20046;-74
2023/07/22 07:35:12;;;;;;;11.65;4.35;;;;;;;;;;4846480;29;20046;-77
2023/07/22 07:37:38;;;;;;;18.25;4.15;;;;;;;;;;4847325;29;20057;-79
2023/07/22 07:40:05;;;;;;;12.13;4.28;;;;;;;;;;4849137;29;20054;-76
2023/07/22 07:42:32;;;;;;;15.13;4.40;;;;;;;;;;4852322;29;20073;-77
2023/07/22 07:44:59;;;;;;;11.98;4.10;;;;;;;;;;4849579;29;20062;-74
2023/07/22 07:47:25;;;;;;;14.52;4.20;;;;;;;;;;4846292;29;20129;-74
2023/07/22 07:49:51;;;;;;;12.80;4.07;;;;;;;;;;4855000;29;20053;-75
2023/07/22 07:52:16;;;;;;;22.90;4.50;;;;;;;;;;4851276;29;20523;-76
2023/07/22 07:54:42;;;;;;;10.88;3.90;;;;;;;;;;4842996;29;20080;-74
2023/07/22 07:57:08;;;;;;;11.02;4.10;;;;;;;;;;4850229;29;20058;-76
2023/07/22 07:59:38;;;;;;;12.18;4.18;;;;;;;;;;4834302;29;20064;-74
2023/07/22 08:02:09;;;;;;;12.27;4.57;;;;;;;;;;4853348;29;20053;-76
2023/07/22 08:04:35;;;;;;;11.55;4.00;;;;;;;;;;4854945;29;20061;-77
2023/07/22 08:07:01;;;;;;;14.10;3.83;;;;;;;;;;4853352;29;20069;-75
2023/07/22 08:09:29;;;;;;;13.82;4.18;;;;;;;;;;4860103;29;20116;-78
2023/07/22 08:11:54;;;;;;;11.20;4.30;;;;;;;;;;4852262;29;20520;-75
2023/07/22 08:14:22;;;;;;;12.77;4.30;;;;;;;;;;4855099;29;20628;-76
2023/07/22 08:16:48;;;;;;;11.75;3.95;;;;;;;;;;4854384;29;20045;-76
2023/07/22 08:19:14;;;;;;;15.10;3.90;;;;;;;;;;4857930;29;20049;-79
2023/07/22 08:21:40;;;;;;;10.57;4.18;;;;;;;;;;4851811;29;20095;-78
2023/07/22 08:24:08;;;;;;;13.07;4.25;;;;;;;;;;4839806;29;20041;-74
2023/07/22 08:26:36;;;;;;;14.90;4.22;;;;;;;;;;4822990;29;20065;-71
2023/07/22 08:29:02;;;;;;;14.85;4.00;;;;;;;;;;4842105;29;20054;-76
2023/07/22 08:31:29;;;;;;;17.67;4.53;;;;;;;;;;4842054;29;20064;-69
2023/07/22 08:33:56;;;;;;;10.75;4.00;;;;;;;;;;4852241;29;20411;-73
2023/07/22 08:36:22;;;;;;;11.55;3.63;;;;;;;;;;4837604;29;20050;-71
2023/07/22 08:38:48;;;;;;;10.05;3.70;;;;;;;;;;4838342;29;20667;-73
2023/07/22 08:41:16;;;;;;;11.27;3.45;;;;;;;;;;4840045;29;20060;-70
2023/07/22 08:43:46;;;;;;;13.43;4.00;;;;;;;;;;4840802;29;20065;-74
2023/07/22 08:46:54;;;;;;;13.45;3.80;;;;;;;;;;4841991;29;21839;-75
2023/07/22 08:50:35;;;;;;;9.85;3.40;;;;;;;;;;4841393;29;20527;-68
2023/07/22 08:53:37;;;;;;;14.38;3.70;;;;;;;;;;4843510;29;20567;-67
2023/07/22 08:56:07;;;;;;;10.80;3.55;;;;;;;;;;4837052;29;20046;-65
2023/07/22 08:58:34;;;;;;;14.95;3.92;;;;;;;;;;4830639;29;20140;-70
2023/07/22 09:01:01;;;;;;;12.93;3.58;;;;;;;;;;4841083;29;20069;-70
2023/07/22 09:03:28;;;;;;;16.27;4.22;;;;;;;;;;4854839;29;20085;-71
2023/07/22 09:05:55;;;;;;;14.68;3.90;;;;;;;;;;4850989;29;20459;-71
2023/07/22 09:08:21;;;;;;;15.90;3.90;;;;;;;;;;4844267;29;20045;-73
2023/07/22 09:10:48;;;;;;;13.63;4.00;;;;;;;;;;4845911;29;20061;-73
2023/07/22 09:13:15;;;;;;;9.57;3.13;;;;;;;;;;4855512;29;20053;-70
2023/07/22 09:15:43;;;;;;;12.18;3.95;;;;;;;;;;4843549;29;20058;-71
2023/07/22 09:18:08;;;;;;;11.75;3.90;;;;;;;;;;4850871;29;20502;-70
2023/07/22 09:20:34;;;;;;;12.73;3.50;;;;;;;;;;4852354;29;20057;-70
2023/07/22 09:23:01;;;;;;;10.55;3.70;;;;;;;;;;4844262;29;20053;-70
2023/07/22 09:25:28;;;;;;;14.30;3.58;;;;;;;;;;4841498;29;20049;-71
2023/07/22 09:27:58;;;;;;;12.70;3.58;;;;;;;;;;4838217;29;20095;-71
2023/07/22 09:30:48;;;;;;;12.40;3.97;;;;;;;;;;4845818;29;20510;-72
2023/07/22 09:33:22;;;;;;;17.42;4.10;;;;;;;;;;4845059;29;20049;-73
2023/07/22 09:35:49;;;;;;;11.18;3.40;;;;;;;;;;4851142;29;20050;-72
2023/07/22 09:38:25;;;;;;;14.50;4.10;;;;;;;;;;4853009;29;20053;-71
2023/07/22 09:40:52;;;;;;;14.02;3.67;;;;;;;;;;4852579;29;20061;-70
2023/07/22 09:43:19;;;;;;;17.85;3.72;;;;;;;;;;4845296;29;20418;-71
2023/07/22 09:45:48;;;;;;;12.93;3.40;;;;;;;;;;4854328;29;20057;-72
2023/07/22 09:48:14;;;;;;;14.23;3.83;;;;;;;;;;4839832;29;20053;-71
2023/07/22 09:50:41;;;;;;;9.50;3.47;;;;;;;;;;4830579;29;20058;-71
2023/07/22 09:53:07;;;;;;;12.82;3.90;;;;;;;;;;4843405;29;20468;-71
2023/07/22 09:55:34;;;;;;;9.98;3.97;;;;;;;;;;4821881;29;20065;-70
2023/07/22 09:58:02;;;;;;;12.98;3.90;;;;;;;;;;4845821;29;20418;-72
2023/07/22 10:00:31;;;;;;;11.75;3.85;;;;;;;;;;4827816;29;20054;-72
2023/07/22 10:02:58;;;;;;;11.13;3.55;;;;;;;;;;4843185;29;20141;-71
2023/07/22 10:05:25;;;;;;;16.88;4.07;;;;;;;;;;4856145;29;20515;-71
2023/07/22 10:07:56;;;;;;;13.50;3.38;;;;;;;;;;4850844;29;20069;-71
2023/07/22 10:10:27;;;;;;;11.32;3.63;;;;;;;;;;4849593;29;20060;-71
2023/07/22 10:12:53;;;;;;;11.45;3.60;;;;;;;;;;4856651;29;20410;-72
2023/07/22 10:15:20;;;;;;;15.90;4.00;;;;;;;;;;4856086;29;20455;-71
2023/07/22 10:17:46;;;;;;;9.82;3.45;;;;;;;;;;4857174;29;20056;-71
2023/07/22 10:20:16;;;;;;;13.05;4.55;;;;;;;;;;4845502;29;20415;-73
2023/07/22 10:22:44;;;;;;;15.23;4.28;;;;;;;;;;4832507;29;21211;-73
2023/07/22 10:25:50;;;;;;;9.45;3.53;;;;;;;;;;4851922;29;20124;-72
2023/07/22 10:29:33;;;;;;;12.98;4.25;;;;;;;;;;4848561;29;20046;-71
2023/07/22 10:33:13;;;;;;;12.70;4.20;;;;;;;;;;4846999;29;20503;-71
2023/07/22 10:36:53;;;;;;;14.57;4.22;;;;;;;;;;4843149;29;20054;-71
2023/07/22 10:40:20;;;;;;;13.02;3.47;;;;;;;;;;4850808;29;20384;-71
2023/07/22 10:43:34;;;;;;;14.68;3.80;;;;;;;;;;4841736;29;20058;-73
2023/07/22 10:46:10;;;;;;;13.30;3.45;;;;;;;;;;4846587;29;20054;-72
2023/07/22 10:48:41;;;;;;;14.00;4.05;;;;;;;;;;4858723;29;20053;-72
2023/07/22 10:51:17;;;;;;;8.85;3.15;;;;;;;;;;4856410;29;20058;-70
2023/07/22 10:53:50;;;;;;;13.02;4.30;;;;;;;;;;4851430;29;20050;-72
2023/07/22 10:56:21;;;;;;;11.25;3.67;;;;;;;;;;4858111;29;20049;-71
2023/07/22 10:58:52;;;;;;;14.93;3.85;;;;;;;;;;4848572;29;20204;-71
2023/07/22 11:01:24;;;;;;;;;;;;;;;;;;4841849;29;20050;-70
2023/07/22 11:04:12;;;;;;;17.45;4.10;;;;;;;;;;4843126;29;19928;-71
2023/07/22 11:06:45;;;;;;;15.35;4.00;;;;;;;;;;4845320;29;20049;-71
2023/07/22 11:12:01;;;;;;;13.07;3.72;;;;;;;;;;4848145;29;20722;-72
2023/07/22 11:14:38;;;;;;;11.85;4.05;;;;;;;;;;4855668;29;20091;-73
2023/07/22 11:17:05;;;;;;;13.05;3.70;;;;;;;;;;4832151;29;20045;-72
2023/07/22 11:19:33;;;;;;;14.10;3.28;;;;;;;;;;4856402;29;20048;-71
2023/07/22 11:22:01;;;;;;;13.15;3.78;;;;;;;;;;4851457;29;20136;-72
2023/07/22 11:24:28;;;;;;;17.75;3.92;;;;;;;;;;4852717;29;20125;-71
2023/07/22 11:26:55;;;;;;;14.45;3.60;;;;;;;;;;4828753;29;20121;-72
2023/07/22 11:29:21;;;;;;;10.02;3.90;;;;;;;;;;4862416;29;20064;-74
2023/07/22 11:31:51;;;;;;;16.02;4.43;;;;;;;;;;4846066;29;20058;-73
2023/07/22 11:34:22;;;;;;;14.30;4.43;;;;;;;;;;4853872;29;20034;-73
2023/07/22 11:36:50;;;;;;;16.08;4.20;;;;;;;;;;4851571;29;20050;-71
2023/07/22 11:39:31;;;;;;;14.43;3.90;;;;;;;;;;4837297;29;20460;-71
2023/07/22 11:42:01;;;;;;;11.50;3.90;;;;;;;;;;4853017;29;20114;-71
2023/07/22 11:44:27;;;;;;;19.48;4.60;;;;;;;;;;4842625;29;20048;-74
2023/07/22 11:47:00;;;;;;;17.95;4.15;;;;;;;;;;4855942;29;20084;-73
2023/07/22 11:49:36;;;;;;;17.55;4.30;;;;;;;;;;4852134;29;20069;-72
2023/07/22 11:52:07;;;;;;;18.10;4.03;;;;;;;;;;4851381;29;20073;-73
2023/07/22 11:54:34;;;;;;;25.58;4.40;;;;;;;;;;4849578;29;20145;-72
2023/07/22 11:57:20;;;;;;;16.67;3.80;;;;;;;;;;4845910;29;20046;-76
2023/07/22 11:59:55;;;;;;;22.98;4.20;;;;;;;;;;4855687;29;20514;-73
2023/07/22 12:02:25;;;;;;;18.67;4.60;;;;;;;;;;4845784;29;20058;-73
2023/07/22 12:05:05;;;;;;;18.17;4.57;;;;;;;;;;4847746;29;20118;-71
2023/07/22 12:07:33;;;;;;;21.33;4.55;;;;;;;;;;4833721;29;20117;-74
2023/07/22 12:10:01;;;;;;;19.60;4.68;;;;;;;;;;4853083;29;20049;-70
2023/07/22 12:12:45;;;;;;;22.60;5.13;;;;;;;;;;4855424;29;20123;-73
2023/07/22 12:15:17;;;;;;;19.98;5.47;;;;;;;;;;4848725;29;20049;-72
2023/07/22 12:17:59;;;;;;;26.77;5.25;;;;;;;;;;4853032;29;20067;-73
2023/07/22 12:20:31;;;;;;;21.50;4.95;;;;;;;;;;4854771;29;20180;-72
2023/07/22 12:22:58;;;;;;;17.80;4.63;;;;;;;;;;4856510;29;20057;-72
2023/07/22 12:25:24;;;;;;;23.17;4.68;;;;;;;;;;4835941;29;20057;-72
2023/07/22 12:27:50;;;;;;;13.13;4.07;;;;;;;;;;4858957;29;20062;-71
2023/07/22 12:30:17;;;;;;;16.63;4.38;;;;;;;;;;4836153;29;20050;-71
2023/07/22 12:32:43;;;;;;;21.17;4.50;;;;;;;;;;4861366;29;20061;-71
2023/07/22 12:35:09;;;;;;;17.83;4.40;;;;;;;;;;4852382;29;20062;-71
2023/07/22 12:37:36;;;;;;;18.77;4.60;;;;;;;;;;4848771;29;20491;-72
2023/07/22 12:40:04;;;;;;;16.52;4.05;;;;;;;;;;4842565;29;20553;-72
2023/07/22 12:42:31;;;;;;;18.90;4.45;;;;;;;;;;4848594;29;20049;-70
2023/07/22 12:44:57;;;;;;;13.25;4.07;;;;;;;;;;4842283;29;20475;-70
2023/07/22 12:47:23;;;;;;;14.52;4.00;;;;;;;;;;4851256;29;20065;-69
2023/07/22 12:49:48;;;;;;;19.10;4.57;;;;;;;;;;4850772;29;20054;-71
2023/07/22 12:52:16;;;;;;;19.95;4.60;;;;;;;;;;4845813;29;20058;-72
2023/07/22 12:54:42;;;;;;;26.88;4.70;;;;;;;;;;4837218;29;20045;-71
2023/07/22 12:57:09;;;;;;;20.10;4.03;;;;;;;;;;4845437;29;20129;-70
2023/07/22 12:59:36;;;;;;;14.73;3.97;;;;;;;;;;4855082;29;20486;-72
2023/07/22 13:02:02;;;;;;;17.27;4.40;;;;;;;;;;4854482;29;20059;-73
2023/07/22 13:05:09;;;;;;;17.80;4.32;;;;;;;;;;4851992;29;20061;-71
2023/07/22 13:08:49;;;;;;;21.15;4.45;;;;;;;;;;4841925;29;20046;-72
2023/07/22 13:12:29;;;;;;;13.05;4.43;;;;;;;;;;4843049;29;20088;-70
2023/07/22 13:16:11;;;;;;;15.68;4.10;;;;;;;;;;4841897;29;20046;-69
2023/07/22 13:19:11;;;;;;;18.35;4.20;;;;;;;;;;4852850;29;20053;-71
2023/07/22 13:21:38;;;;;;;17.02;4.20;;;;;;;;;;4846886;29;20079;-71
2023/07/22 13:24:04;;;;;;;14.27;4.78;;;;;;;;;;4835233;29;20050;-71
2023/07/22 13:27:12;;;;;;;14.23;3.72;;;;;;;;;;4850091;29;20049;-70
2023/07/22 13:30:52;;;;;;;15.45;3.83;;;;;;;;;;4847622;29;20094;-71
2023/07/22 13:34:33;;;;;;;14.05;4.03;;;;;;;;;;4848565;29;20053;-72
2023/07/22 13:38:13;;;;;;;11.82;3.90;;;;;;;;;;4853020;29;20061;-71
2023/07/22 13:41:53;;;;;;;12.57;3.60;;;;;;;;;;4850511;29;20106;-72
2023/07/22 13:45:34;;;;;;;11.68;3.70;;;;;;;;;;4846823;29;20566;-72
2023/07/22 13:49:15;;;;;;;11.38;3.28;;;;;;;;;;4858493;29;20060;-72
2023/07/22 13:52:54;;;;;;;13.20;3.55;;;;;;;;;;4852862;29;20046;-71
2023/07/22 13:56:35;;;;;;;14.18;3.50;;;;;;;;;;4844304;29;20460;-71
2023/07/22 13:59:35;;;;;;;12.95;3.58;;;;;;;;;;4866171;29;20095;-71
2023/07/22 14:02:02;;;;;;;20.70;4.20;;;;;;;;;;4850482;29;20069;-72
2023/07/22 14:04:28;;;;;;;14.98;3.80;;;;;;;;;;4847239;29;20054;-72
2023/07/22 14:06:54;;;;;;;15.32;3.75;;;;;;;;;;4854298;29;20501;-72
2023/07/22 14:09:21;;;;;;;17.67;3.88;;;;;;;;;;4857302;29;20054;-71
2023/07/22 14:11:47;;;;;;;11.70;3.78;;;;;;;;;;4859890;29;20429;-73
2023/07/22 14:14:13;;;;;;;13.52;3.92;;;;;;;;;;4848151;29;20049;-70
2023/07/22 14:16:39;;;;;;;16.27;3.63;;;;;;;;;;4851804;29;20063;-73
2023/07/22 14:19:07;;;;;;;14.13;4.03;;;;;;;;;;4850885;29;20116;-71
2023/07/22 14:21:33;;;;;;;14.27;3.78;;;;;;;;;;4832935;29;20057;-71
2023/07/22 14:23:59;;;;;;;16.40;4.32;;;;;;;;;;4850416;29;20105;-70
2023/07/22 14:26:25;;;;;;;18.33;4.45;;;;;;;;;;4821489;29;20065;-69
2023/07/22 14:28:50;;;;;;;13.23;3.38;;;;;;;;;;4853100;29;20458;-73
2023/07/22 14:31:16;;;;;;;17.73;3.92;;;;;;;;;;4847218;29;20079;-73
2023/07/22 14:33:42;;;;;;;15.60;4.22;;;;;;;;;;4845876;29;20132;-75
2023/07/22 14:36:09;;;;;;;13.20;4.00;;;;;;;;;;4851245;29;20049;-73
2023/07/22 14:38:35;;;;;;;15.35;3.70;;;;;;;;;;4844578;29;20064;-73
2023/07/22 14:41:41;;;;;;;16.23;4.53;;;;;;;;;;4845269;29;20072;-71
2023/07/22 14:45:21;;;;;;;15.20;4.20;;;;;;;;;;4846239;29;20102;-69
2023/07/22 14:49:01;;;;;;;14.02;3.65;;;;;;;;;;4842681;29;20079;-71
2023/07/22 14:52:44;;;;;;;17.90;4.25;;;;;;;;;;4846032;29;20053;-69
2023/07/22 14:55:44;;;;;;;19.30;4.63;;;;;;;;;;4846792;29;20052;-74
2023/07/22 14:58:11;;;;;;;14.23;4.40;;;;;;;;;;4847635;29;20069;-74
2023/07/22 15:00:36;;;;;;;16.95;4.35;;;;;;;;;;4848678;29;20113;-71
2023/07/22 15:03:42;;;;;;;16.60;4.22;;;;;;;;;;4849214;29;20089;-70
2023/07/22 15:07:23;;;;;;;24.05;5.03;;;;;;;;;;4848117;29;20041;-71